Time;durP1;ratioP1;P1;durP2;ratioP2;P2;SDS_P1;SDS_P2;PMS_P1;PMS_P2;Temp;Humidity;BMP_temperature;BMP_pressure;BME280_temperature;BME280_humidity;BME280_pressure;Samples;Min_cycle;Max_cycle;Signal;HPM_P1;HPM_P2
2023/07/17 00:00:20;;;;;;;0.47;0.30;;;;;;;26.93;100.00;95600.28;5091622;28;20480;-50
2023/07/17 00:02:48;;;;;;;0.60;0.60;;;;;;;26.87;100.00;95593.59;5091754;28;20440;-50
2023/07/17 00:05:17;;;;;;;0.97;0.40;;;;;;;26.76;100.00;95595.34;5090867;28;20437;-50
2023/07/17 00:07:46;;;;;;;0.60;0.60;;;;;;;26.75;100.00;95604.66;5079805;28;20950;-50
2023/07/17 00:10:15;;;;;;;0.77;0.33;;;;;;;26.74;100.00;95611.25;5091226;28;20444;-50
2023/07/17 00:12:43;;;;;;;0.40;0.30;;;;;;;26.83;100.00;95603.63;5091693;28;20440;-50
2023/07/17 00:15:13;;;;;;;0.50;0.40;;;;;;;26.70;100.00;95594.88;5091517;28;20432;-50
2023/07/17 00:17:41;;;;;;;0.80;0.63;;;;;;;26.71;100.00;95595.66;5091845;28;20464;-50
2023/07/17 00:20:12;;;;;;;0.50;0.50;;;;;;;26.66;100.00;95599.47;5091348;28;20462;-50
2023/07/17 00:22:41;;;;;;;0.50;0.40;;;;;;;26.64;100.00;95598.28;5091363;28;20437;-50
2023/07/17 00:25:10;;;;;;;0.80;0.80;;;;;;;26.53;100.00;95589.16;5091188;28;20485;-50
2023/07/17 00:27:39;;;;;;;0.73;0.73;;;;;;;26.60;100.00;95600.13;5091780;28;20471;-50
2023/07/17 00:30:08;;;;;;;0.50;0.37;;;;;;;26.49;100.00;95600.75;5091355;28;20865;-50
2023/07/17 00:32:38;;;;;;;0.60;0.40;;;;;;;26.64;100.00;95615.34;5091656;28;20470;-50
2023/07/17 00:35:07;;;;;;;0.80;0.80;;;;;;;26.62;100.00;95597.81;5091105;28;20472;-50
2023/07/17 00:37:35;;;;;;;0.80;0.60;;;;;;;26.71;100.00;95596.44;5091222;28;20984;-50
2023/07/17 00:40:07;;;;;;;0.90;0.80;;;;;;;26.72;100.00;95592.56;5091402;28;20519;-50
2023/07/17 00:42:35;;;;;;;0.93;0.93;;;;;;;26.78;100.00;95602.03;5091204;28;20535;-50
2023/07/17 00:45:05;;;;;;;1.00;1.00;;;;;;;26.36;100.00;95610.22;5091677;28;20428;-50
2023/07/17 00:47:33;;;;;;;1.50;1.40;;;;;;;25.87;100.00;95612.03;5091569;28;20456;-50
2023/07/17 00:50:05;;;;;;;1.03;0.83;;;;;;;25.82;100.00;95609.59;5083239;28;20851;-50
2023/07/17 00:52:34;;;;;;;0.50;0.50;;;;;;;26.16;100.00;95607.94;5087344;28;20494;-50
2023/07/17 00:55:04;;;;;;;1.10;1.00;;;;;;;26.31;100.00;95596.94;5091268;28;20459;-50
2023/07/17 00:57:33;;;;;;;0.90;0.40;;;;;;;26.32;100.00;95595.00;5091586;28;20437;-51
2023/07/17 01:00:03;;;;;;;1.90;0.60;;;;;;;26.44;100.00;95606.50;5091399;28;20480;-48
2023/07/17 01:02:32;;;;;;;0.83;0.60;;;;;;;26.24;100.00;95612.34;5094140;28;20541;-49
2023/07/17 01:05:00;;;;;;;3.50;1.50;;;;;;;26.02;100.00;95610.38;5095561;28;20432;-50
2023/07/17 01:07:30;;;;;;;1.37;1.27;;;;;;;25.83;100.00;95609.25;5095427;28;20893;-50
2023/07/17 01:09:58;;;;;;;1.03;0.90;;;;;;;25.88;100.00;95607.41;5095168;28;20462;-50
2023/07/17 01:12:27;;;;;;;0.47;0.37;;;;;;;25.97;100.00;95610.66;5095137;28;20956;-50
2023/07/17 01:14:55;;;;;;;1.83;0.53;;;;;;;26.06;100.00;95609.28;5094941;28;20951;-49
2023/07/17 01:17:24;;;;;;;0.60;0.53;;;;;;;25.97;100.00;95606.00;5094542;28;20437;-50
2023/07/17 01:19:52;;;;;;;0.57;0.57;;;;;;;26.06;100.00;95614.72;5094366;28;20466;-49
2023/07/17 01:22:23;;;;;;;6.37;1.73;;;;;;;25.80;100.00;95614.63;5095076;28;20476;-49
2023/07/17 01:24:53;;;;;;;1.23;0.70;;;;;;;25.88;100.00;95619.81;5094554;28;20505;-50
2023/07/17 01:27:22;;;;;;;2.80;0.47;;;;;;;26.00;100.00;95621.59;5094289;28;20448;-50
2023/07/17 01:29:50;;;;;;;1.73;1.47;;;;;;;26.04;100.00;95608.84;5094120;28;20451;-50
2023/07/17 01:32:20;;;;;;;1.53;0.70;;;;;;;26.11;100.00;95611.69;5094650;28;20471;-49
2023/07/17 01:34:49;;;;;;;0.50;0.50;;;;;;;26.16;100.00;95613.38;5094487;28;21023;-50
2023/07/17 01:37:17;;;;;;;0.50;0.43;;;;;;;26.02;100.00;95615.78;5094446;28;20446;-50
2023/07/17 01:39:45;;;;;;;1.57;1.47;;;;;;;25.94;100.00;95609.44;5094396;28;20495;-50
2023/07/17 01:42:15;;;;;;;0.50;0.30;;;;;;;25.92;100.00;95614.47;5094702;28;20870;-49
2023/07/17 01:44:43;;;;;;;0.50;0.50;;;;;;;25.82;100.00;95625.91;5094417;28;20524;-50
2023/07/17 01:47:12;;;;;;;0.50;0.40;;;;;;;25.75;100.00;95623.81;5094578;28;21010;-49
2023/07/17 01:49:40;;;;;;;0.60;0.50;;;;;;;25.74;100.00;95618.75;5093723;28;20437;-50
2023/07/17 01:52:10;;;;;;;0.70;0.67;;;;;;;25.76;100.00;95611.03;5094161;28;20455;-50
2023/07/17 01:54:38;;;;;;;0.77;0.77;;;;;;;25.77;100.00;95613.41;5094019;28;20964;-50
2023/07/17 01:57:07;;;;;;;1.10;0.77;;;;;;;25.88;100.00;95627.97;5088459;28;20440;-50
2023/07/17 01:59:37;;;;;;;0.60;0.60;;;;;;;25.83;100.00;95624.78;5068659;28;20471;-50
2023/07/17 02:02:07;;;;;;;1.27;1.17;;;;;;;25.81;100.00;95619.69;5093519;28;20933;-50
2023/07/17 02:04:35;;;;;;;0.73;0.57;;;;;;;25.83;100.00;95622.06;5093897;28;20951;-50
2023/07/17 02:07:04;;;;;;;0.83;0.60;;;;;;;25.75;100.00;95636.63;5093982;28;20441;-50
2023/07/17 02:09:32;;;;;;;0.60;0.60;;;;;;;25.64;100.00;95639.13;5093853;28;20441;-50
2023/07/17 02:12:00;;;;;;;0.70;0.70;;;;;;;25.56;100.00;95629.25;5093179;28;20436;-50
2023/07/17 02:14:29;;;;;;;1.00;0.90;;;;;;;25.57;100.00;95627.34;5093687;28;20440;-49
2023/07/17 02:16:59;;;;;;;0.53;0.40;;;;;;;25.60;100.00;95634.78;5093561;28;20941;-50
2023/07/17 02:19:28;;;;;;;0.90;0.50;;;;;;;25.54;100.00;95634.28;5093954;28;20440;-50
2023/07/17 02:21:56;;;;;;;0.60;0.60;;;;;;;25.55;100.00;95632.34;5092290;28;20472;-50
2023/07/17 02:24:24;;;;;;;0.60;0.57;;;;;;;25.58;100.00;95642.47;5093835;28;20433;-50
2023/07/17 02:26:53;;;;;;;1.33;1.23;;;;;;;25.60;100.00;95640.19;5093916;28;20444;-50
2023/07/17 02:29:21;;;;;;;3.50;0.47;;;;;;;25.50;100.00;95629.91;5094014;28;20527;-50
2023/07/17 02:31:50;;;;;;;0.90;0.50;;;;;;;25.45;100.00;95639.09;5093615;28;20433;-50
2023/07/17 02:34:20;;;;;;;1.43;1.33;;;;;;;25.47;100.00;95647.69;5093707;28;21098;-50
2023/07/17 02:36:48;;;;;;;1.07;1.07;;;;;;;25.50;100.00;95638.81;5093055;28;20425;-50
2023/07/17 02:39:17;;;;;;;0.67;0.67;;;;;;;25.43;100.00;95635.13;5093145;28;21010;-50
2023/07/17 02:41:45;;;;;;;0.60;0.50;;;;;;;25.50;100.00;95646.97;5093386;28;20464;-50
2023/07/17 02:44:14;;;;;;;0.70;0.70;;;;;;;25.43;100.00;95640.56;5093167;28;20464;-50
2023/07/17 02:46:42;;;;;;;0.80;0.50;;;;;;;25.21;100.00;95629.28;5093286;28;20433;-50
2023/07/17 02:49:13;;;;;;;0.83;0.83;;;;;;;25.30;100.00;95641.88;5093064;28;20611;-50
2023/07/17 02:51:43;;;;;;;0.77;0.70;;;;;;;25.37;100.00;95644.72;5093276;28;20928;-50
2023/07/17 02:54:13;;;;;;;0.50;0.47;;;;;;;25.36;100.00;95645.84;5092829;28;20483;-50
2023/07/17 02:56:41;;;;;;;0.50;0.40;;;;;;;25.36;100.00;95651.28;5093537;28;20825;-50
2023/07/17 02:59:09;;;;;;;0.70;0.63;;;;;;;25.27;100.00;95653.41;5092483;28;20532;-50
2023/07/17 03:01:38;;;;;;;1.17;0.77;;;;;;;25.27;100.00;95650.69;5093129;28;20440;-50
2023/07/17 03:04:06;;;;;;;0.80;0.80;;;;;;;25.28;100.00;95642.19;5093052;28;20432;-50
2023/07/17 03:06:34;;;;;;;0.70;0.60;;;;;;;25.18;100.00;95629.19;5092754;28;20432;-51
2023/07/17 03:09:04;;;;;;;1.17;1.07;;;;;;;25.25;100.00;95651.03;5092269;28;20494;-51
2023/07/17 03:11:32;;;;;;;0.50;0.43;;;;;;;25.17;100.00;95652.81;5093183;28;20887;-50
2023/07/17 03:14:01;;;;;;;1.07;0.40;;;;;;;25.15;100.00;95654.31;5078925;28;20437;-51
2023/07/17 03:16:29;;;;;;;0.70;0.70;;;;;;;25.12;100.00;95653.09;5092575;28;20960;-50
2023/07/17 03:18:58;;;;;;;0.90;0.70;;;;;;;25.12;100.00;95671.31;5092263;28;20527;-51
2023/07/17 03:21:26;;;;;;;0.70;0.67;;;;;;;25.15;100.00;95668.66;5092706;28;20444;-51
2023/07/17 03:23:54;;;;;;;1.50;1.40;;;;;;;25.14;100.00;95667.09;5064569;28;20907;-51
2023/07/17 03:26:24;;;;;;;1.23;0.70;;;;;;;25.09;100.00;95667.38;5092562;28;20447;-51
2023/07/17 03:28:53;;;;;;;0.60;0.60;;;;;;;25.08;100.00;95665.00;5092354;28;20472;-50
2023/07/17 03:31:21;;;;;;;1.10;0.57;;;;;;;25.05;100.00;95669.19;5092171;28;20444;-50
2023/07/17 03:33:50;;;;;;;0.77;0.77;;;;;;;25.14;100.00;95669.81;5092527;28;20497;-50
2023/07/17 03:36:18;;;;;;;0.80;0.43;;;;;;;25.12;100.00;95682.91;5092195;28;20894;-50
2023/07/17 03:38:46;;;;;;;1.07;0.40;;;;;;;25.12;100.00;95672.06;5092434;28;20441;-50
2023/07/17 03:41:17;;;;;;;1.20;0.83;;;;;;;25.10;100.00;95679.00;5091669;28;20508;-51
2023/07/17 03:43:47;;;;;;;3.80;0.50;;;;;;;25.22;100.00;95685.09;5091923;28;20483;-50
2023/07/17 03:46:15;;;;;;;0.87;0.70;;;;;;;24.88;100.00;95677.72;5091781;28;20467;-50
2023/07/17 03:48:44;;;;;;;0.80;0.80;;;;;;;24.83;100.00;95682.63;5092417;28;20476;-50
2023/07/17 03:51:12;;;;;;;0.97;0.73;;;;;;;24.83;100.00;95683.41;5092037;28;20444;-50
2023/07/17 03:53:41;;;;;;;1.67;1.57;;;;;;;24.51;100.00;95685.31;5091851;28;20507;-50
2023/07/17 03:56:09;;;;;;;4.83;1.23;;;;;;;24.62;100.00;95682.84;5091668;28;20447;-50
2023/07/17 04:01:24;;;;;;;0.97;0.93;;;;;;;24.82;100.00;95684.53;5092155;28;20986;-50
2023/07/17 04:03:53;;;;;;;0.90;0.90;;;;;;;25.15;100.00;95690.38;5091123;28;20563;-50
2023/07/17 04:06:21;;;;;;;0.90;0.90;;;;;;;25.33;100.00;95689.97;5090980;28;20501;-50
2023/07/17 04:08:49;;;;;;;1.23;1.23;;;;;;;25.44;100.00;95691.00;5091753;28;20433;-49
2023/07/17 04:11:18;;;;;;;0.73;0.73;;;;;;;25.45;100.00;95692.59;5091750;28;20468;-50
2023/07/17 04:13:46;;;;;;;2.20;2.00;;;;;;;25.52;100.00;95690.06;5091178;28;20429;-50
2023/07/17 04:16:16;;;;;;;0.63;0.63;;;;;;;25.57;100.00;95698.72;5091810;28;20470;-50
2023/07/17 04:18:45;;;;;;;0.60;0.53;;;;;;;25.63;100.00;95699.19;5091123;28;21011;-50
2023/07/17 04:21:14;;;;;;;0.60;0.60;;;;;;;25.71;100.00;95693.56;5091371;28;20432;-49
2023/07/17 04:23:42;;;;;;;0.63;0.60;;;;;;;25.73;100.00;95687.78;5091540;28;20476;-49
2023/07/17 04:26:11;;;;;;;1.23;0.70;;;;;;;25.80;100.00;95688.72;5091544;28;21010;-49
2023/07/17 04:28:39;;;;;;;0.73;0.73;;;;;;;25.80;100.00;95698.81;5091901;28;20784;-50
2023/07/17 04:31:07;;;;;;;0.90;0.73;;;;;;;25.78;100.00;95685.56;5091872;28;20429;-49
2023/07/17 04:33:36;;;;;;;0.80;0.67;;;;;;;25.89;100.00;95691.22;5084677;28;20484;-49
2023/07/17 04:36:08;;;;;;;0.50;0.50;;;;;;;25.98;100.00;95699.16;5087924;28;20535;-49
2023/07/17 04:38:37;;;;;;;0.53;0.53;;;;;;;26.06;100.00;95693.50;5095717;28;20460;-49
2023/07/17 04:41:06;;;;;;;1.47;1.37;;;;;;;25.68;100.00;95679.91;5095713;28;20817;-50
2023/07/17 04:43:34;;;;;;;1.10;1.00;;;;;;;25.53;100.00;95697.03;5095363;28;20472;-49
2023/07/17 04:46:03;;;;;;;1.60;1.27;;;;;;;25.79;100.00;95708.09;5095382;28;20797;-49
2023/07/17 04:48:31;;;;;;;0.60;0.50;;;;;;;25.90;100.00;95697.44;5095686;28;21002;-49
2023/07/17 04:50:59;;;;;;;0.87;0.73;;;;;;;26.10;100.00;95697.09;5095468;28;20992;-50
2023/07/17 04:53:29;;;;;;;1.53;0.93;;;;;;;26.17;100.00;95702.69;5095366;28;20443;-50
2023/07/17 04:55:57;;;;;;;1.00;0.80;;;;;;;26.32;100.00;95701.81;5095574;28;20494;-50
2023/07/17 04:58:27;;;;;;;7.93;1.07;;;;;;;26.34;100.00;95702.22;5094856;28;20436;-50
2023/07/17 05:00:59;;;;;;;0.97;0.83;;;;;;;26.45;100.00;95697.78;5094644;28;20559;-49
2023/07/17 05:03:28;;;;;;;0.77;0.57;;;;;;;26.53;100.00;95697.91;5095471;28;21029;-50
2023/07/17 05:05:57;;;;;;;0.63;0.60;;;;;;;26.59;100.00;95705.38;5088741;28;20440;-50
2023/07/17 05:08:27;;;;;;;0.43;0.40;;;;;;;26.69;100.00;95695.84;5088613;28;20433;-50
2023/07/17 05:10:57;;;;;;;0.50;0.40;;;;;;;26.62;100.00;95720.97;5069665;28;20497;-50
2023/07/17 05:13:26;;;;;;;0.70;0.70;;;;;;;26.61;100.00;95705.84;5081581;28;20499;-51
2023/07/17 05:15:54;;;;;;;0.83;0.73;;;;;;;26.74;100.00;95698.28;5094645;28;20470;-51
2023/07/17 05:18:22;;;;;;;0.80;0.80;;;;;;;26.83;100.00;95696.13;5094776;28;20475;-50
2023/07/17 05:20:52;;;;;;;0.90;0.57;;;;;;;26.94;98.80;95686.22;5095042;28;20432;-50
2023/07/17 05:23:20;;;;;;;0.60;0.57;;;;;;;27.04;100.00;95693.75;5094415;28;20505;-51
2023/07/17 05:25:54;;;;;;;0.53;0.47;;;;;;;27.13;98.10;95699.72;5095112;28;20465;-51
2023/07/17 05:28:24;;;;;;;4.53;1.53;;;;;;;26.78;96.17;95701.88;5093873;28;20440;-51
2023/07/17 05:30:53;;;;;;;1.73;1.60;;;;;;;26.51;97.67;95708.34;5094630;28;20444;-51
2023/07/17 05:33:21;;;;;;;1.60;1.50;;;;;;;26.25;100.00;95639.16;5094637;28;20815;-52
2023/07/17 05:35:50;;;;;;;1.03;1.03;;;;;;;27.23;97.77;95699.09;5094845;28;20444;-52
2023/07/17 05:38:19;;;;;;;1.50;0.97;;;;;;;27.22;98.91;95702.97;5094464;28;20489;-52
2023/07/17 05:40:47;;;;;;;1.47;1.37;;;;;;;27.28;100.00;95700.72;5094911;28;20509;-52
2023/07/17 05:43:16;;;;;;;1.63;1.53;;;;;;;27.33;97.89;95695.75;5094617;28;20574;-52
2023/07/17 05:45:45;;;;;;;1.20;1.20;;;;;;;27.32;93.45;95701.56;5094633;28;20816;-52
2023/07/17 05:48:14;;;;;;;1.40;1.30;;;;;;;27.58;91.36;95701.56;5063338;28;20437;-52
2023/07/17 05:50:42;;;;;;;10.53;1.20;;;;;;;27.42;91.62;95692.78;5087691;28;20956;-53
2023/07/17 05:53:10;;;;;;;2.10;2.00;;;;;;;27.07;91.51;95695.72;5094178;28;21167;-52
2023/07/17 05:55:39;;;;;;;2.70;2.20;;;;;;;27.05;91.80;95695.31;5093047;28;20448;-52
2023/07/17 05:58:07;;;;;;;3.80;1.83;;;;;;;27.46;95.34;95694.41;5094393;28;20468;-52
2023/07/17 06:00:36;;;;;;;0.63;0.63;;;;;;;27.64;91.30;95706.34;5091934;28;20460;-52
2023/07/17 06:03:06;;;;;;;0.90;0.90;;;;;;;27.95;92.44;95697.00;5081824;28;20993;-52
2023/07/17 06:05:37;;;;;;;0.83;0.83;;;;;;;27.84;89.67;95689.84;5093851;28;20546;-52
2023/07/17 06:08:08;;;;;;;0.60;0.60;;;;;;;28.24;87.79;95707.09;5093521;28;20446;-51
2023/07/17 06:10:37;;;;;;;5.23;1.13;;;;;;;28.13;89.16;95702.69;5093783;28;20871;-51
2023/07/17 06:13:05;;;;;;;1.97;1.87;;;;;;;28.59;88.33;95698.50;5093389;28;20774;-51
2023/07/17 06:15:33;;;;;;;1.50;1.40;;;;;;;28.94;83.07;95698.09;5093069;28;20795;-51
2023/07/17 06:18:02;;;;;;;1.03;0.93;;;;;;;28.98;79.56;95698.09;5093359;28;20479;-51
2023/07/17 06:20:31;;;;;;;1.90;0.93;;;;;;;29.07;79.03;95693.88;5093684;28;20520;-51
2023/07/17 06:23:00;;;;;;;1.20;1.10;;;;;;;29.21;81.35;95687.78;5093903;28;20517;-50
2023/07/17 06:25:28;;;;;;;0.90;0.90;;;;;;;29.43;78.68;95687.56;5093390;28;20512;-50
2023/07/17 06:27:56;;;;;;;2.73;2.63;;;;;;;29.00;80.62;95690.31;5092861;28;20527;-50
2023/07/17 06:30:25;;;;;;;1.73;1.63;;;;;;;29.46;78.85;95688.75;5066941;28;20436;-51
2023/07/17 06:32:53;;;;;;;3.27;2.07;;;;;;;29.33;76.88;95676.56;5093119;28;20448;-50
2023/07/17 06:35:22;;;;;;;2.40;2.30;;;;;;;29.18;78.04;95672.13;5093180;28;20539;-50
2023/07/17 06:37:51;;;;;;;1.07;1.07;;;;;;;29.37;77.70;95680.88;5092573;28;20433;-51
2023/07/17 06:40:20;;;;;;;0.83;0.60;;;;;;;30.24;74.88;95669.97;5084593;28;20980;-51
2023/07/17 06:42:48;;;;;;;1.13;1.03;;;;;;;29.85;74.05;95670.66;5088465;28;20440;-50
2023/07/17 06:45:16;;;;;;;1.33;1.23;;;;;;;30.33;72.11;95668.47;5092907;28;20471;-51
2023/07/17 06:47:45;;;;;;;2.20;1.33;;;;;;;30.65;72.25;95663.84;5093344;28;20800;-51
2023/07/17 06:50:13;;;;;;;1.17;1.17;;;;;;;30.67;72.83;95666.19;5092740;28;20440;-51
2023/07/17 06:52:43;;;;;;;9.53;2.67;;;;;;;30.54;72.67;95654.06;5092387;28;20444;-51
2023/07/17 06:55:12;;;;;;;0.90;0.80;;;;;;;30.92;70.44;95658.00;5092840;28;20905;-51
2023/07/17 06:57:41;;;;;;;0.97;0.97;;;;;;;31.57;67.71;95649.34;5092275;28;20440;-51
2023/07/17 07:00:10;;;;;;;0.90;0.60;;;;;;;32.11;64.95;95648.78;5092553;28;21052;-52
2023/07/17 07:02:39;;;;;;;0.70;0.50;;;;;;;32.28;67.82;95645.19;5092282;28;20427;-52
2023/07/17 07:05:08;;;;;;;2.87;2.67;;;;;;;31.88;67.72;95642.97;5093014;28;20919;-52
2023/07/17 07:07:36;;;;;;;0.87;0.87;;;;;;;32.33;67.79;95642.00;5092557;28;20433;-51
2023/07/17 07:10:05;;;;;;;2.57;2.30;;;;;;;32.00;64.92;95637.09;5092565;28;20435;-51
2023/07/17 07:12:35;;;;;;;0.60;0.60;;;;;;;32.44;64.29;95642.72;5066536;28;20872;-51
2023/07/17 07:15:05;;;;;;;1.13;1.07;;;;;;;32.75;63.02;95637.44;5092512;28;20439;-51
2023/07/17 07:17:33;;;;;;;0.50;0.50;;;;;;;33.31;62.07;95631.47;5092718;28;20800;-52
2023/07/17 07:20:03;;;;;;;3.00;2.90;;;;;;;32.88;60.32;95624.78;5092062;28;20451;-51
2023/07/17 07:22:31;;;;;;;0.87;0.70;;;;;;;33.04;62.33;95630.56;5092255;28;20443;-51
2023/07/17 07:24:59;;;;;;;0.80;0.80;;;;;;;32.86;60.25;95627.94;5091820;28;20506;-52
2023/07/17 07:27:30;;;;;;;3.30;1.00;;;;;;;32.94;60.72;95620.41;5092627;28;20501;-51
2023/07/17 07:30:00;;;;;;;2.30;2.20;;;;;;;33.32;60.93;95619.28;5092174;28;20444;-51
2023/07/17 07:32:29;;;;;;;0.50;0.50;;;;;;;33.78;58.76;95616.03;5092422;28;20444;-51
2023/07/17 07:34:57;;;;;;;1.60;1.23;;;;;;;32.99;59.66;95622.72;5091810;28;20431;-51
2023/07/17 07:37:25;;;;;;;1.67;1.57;;;;;;;32.97;59.34;95616.84;5091884;28;20458;-52
2023/07/17 07:39:54;;;;;;;1.20;1.10;;;;;;;33.70;57.63;95612.59;5092156;28;20446;-52
2023/07/17 07:42:22;;;;;;;4.07;2.30;;;;;;;33.54;58.57;95611.59;5092067;28;20952;-52
2023/07/17 07:44:50;;;;;;;2.07;1.97;;;;;;;33.23;57.81;95610.75;5092035;28;20468;-52
2023/07/17 07:47:20;;;;;;;3.47;3.27;;;;;;;32.67;59.37;95627.69;5092188;28;20447;-52
2023/07/17 07:49:49;;;;;;;0.60;0.60;;;;;;;33.27;61.46;95608.72;5092026;28;20458;-52
2023/07/17 07:52:17;;;;;;;2.63;1.13;;;;;;;33.38;57.48;95592.13;5091594;28;20492;-52
2023/07/17 07:54:46;;;;;;;1.13;1.10;;;;;;;34.00;56.56;95600.06;5092310;28;20432;-53
2023/07/17 07:57:14;;;;;;;1.10;0.80;;;;;;;34.52;56.01;95606.03;5091885;28;20449;-52
2023/07/17 07:59:43;;;;;;;1.80;1.70;;;;;;;33.92;54.70;95598.59;5090380;28;20478;-53
2023/07/17 08:02:12;;;;;;;0.50;0.50;;;;;;;34.59;55.73;95592.97;5091217;28;20478;-52
2023/07/17 08:04:42;;;;;;;1.93;1.20;;;;;;;35.22;53.66;95585.59;5091941;28;20475;-52
2023/07/17 08:07:10;;;;;;;1.60;1.50;;;;;;;34.89;52.65;95597.59;5091042;28;20444;-52
2023/07/17 08:09:38;;;;;;;1.43;1.43;;;;;;;34.10;53.90;95579.91;5091332;28;20526;-52
2023/07/17 08:12:07;;;;;;;8.03;1.70;;;;;;;34.39;52.82;95592.06;5091680;28;20240;-52
2023/07/17 08:14:36;;;;;;;1.17;1.17;;;;;;;34.98;51.86;95590.34;5091833;28;20875;-52
2023/07/17 08:17:04;;;;;;;1.03;1.03;;;;;;;34.86;52.20;95588.19;5091536;28;20435;-52
2023/07/17 08:19:33;;;;;;;2.80;1.07;;;;;;;34.96;52.65;95595.50;5091488;28;20735;-53
2023/07/17 08:22:02;;;;;;;3.10;2.30;;;;;;;34.30;53.17;95586.31;5091444;28;20193;-52
2023/07/17 08:24:31;;;;;;;1.93;1.83;;;;;;;34.66;52.87;95584.56;5091638;28;20190;-52
2023/07/17 08:26:59;;;;;;;0.73;0.73;;;;;;;35.16;52.57;95581.00;5091252;28;20722;-52
2023/07/17 08:29:32;;;;;;;1.60;1.50;;;;;;;34.73;51.84;95578.19;5091307;28;20677;-53
2023/07/17 08:32:01;;;;;;;1.00;1.00;;;;;;;35.76;50.09;95572.38;5065559;28;20190;-53
2023/07/17 08:34:29;;;;;;;1.90;1.80;;;;;;;36.24;48.85;95566.22;5090883;28;20266;-52
2023/07/17 08:36:58;;;;;;;0.80;0.80;;;;;;;36.71;48.69;95561.97;5083881;28;20220;-53
2023/07/17 08:39:27;;;;;;;1.48;1.38;;;;;;;35.90;49.36;95561.03;5086562;28;20198;-53
2023/07/17 08:41:56;;;;;;;1.30;1.20;;;;;;;36.04;49.15;95551.72;5091943;28;20201;-53
2023/07/17 08:44:25;;;;;;;3.03;1.57;;;;;;;36.77;48.94;95559.47;5091417;28;20198;-53
2023/07/17 08:46:54;;;;;;;1.87;1.27;;;;;;;36.37;48.46;95563.56;5091267;28;20213;-53
2023/07/17 08:49:25;;;;;;;1.73;1.63;;;;;;;35.74;49.44;95560.22;5091345;28;20280;-53
2023/07/17 08:51:57;;;;;;;1.57;1.47;;;;;;;36.22;48.73;95558.38;5091587;28;20190;-53
2023/07/17 08:54:28;;;;;;;0.93;0.93;;;;;;;36.43;48.17;95554.38;5091114;28;20190;-54
2023/07/17 08:57:02;;;;;;;1.30;1.10;;;;;;;36.16;48.68;95546.28;5091474;28;20194;-54
2023/07/17 08:59:32;;;;;;;2.55;2.42;;;;;;;36.99;48.21;95545.94;5090864;28;20286;-54
2023/07/17 09:02:01;;;;;;;1.45;1.35;;;;;;;36.29;47.69;95551.91;5091360;28;20208;-54
2023/07/17 09:04:31;;;;;;;1.02;0.88;;;;;;;36.77;46.82;95546.44;5091079;28;20248;-54
2023/07/17 09:06:59;;;;;;;1.37;1.27;;;;;;;37.05;48.21;95541.41;5090369;28;20599;-54
2023/07/17 09:09:29;;;;;;;4.00;0.80;;;;;;;37.52;46.76;95539.75;5091484;28;20198;-54
2023/07/17 09:12:08;;;;;;;1.42;1.38;;;;;;;37.70;44.38;95530.97;5090527;28;20202;-54
2023/07/17 09:14:37;;;;;;;1.50;0.68;;;;;;;37.77;45.52;95530.75;5091165;28;20193;-53
2023/07/17 09:17:08;;;;;;;1.50;0.60;;;;;;;38.90;44.02;95532.75;5091040;28;20194;-53
2023/07/17 09:19:37;;;;;;;0.50;0.50;;;;;;;38.65;44.10;95531.56;5091457;28;20197;-54
2023/07/17 09:22:07;;;;;;;2.92;1.50;;;;;;;38.08;43.86;95529.00;5091759;28;20204;-53
2023/07/17 09:24:38;;;;;;;1.23;1.23;;;;;;;36.82;44.73;95526.56;5094284;28;20193;-54
2023/07/17 09:27:07;;;;;;;0.95;0.95;;;;;;;37.39;45.04;95523.09;5094358;28;20220;-54
2023/07/17 09:29:42;;;;;;;2.65;1.85;;;;;;;37.01;45.15;95524.94;5094341;28;20193;-53
2023/07/17 09:32:18;;;;;;;1.08;0.98;;;;;;;37.50;44.48;95518.06;5094440;28;20193;-57
2023/07/17 09:34:52;;;;;;;0.77;0.77;;;;;;;37.96;42.78;95519.50;5094513;28;20204;-54
2023/07/17 09:37:20;;;;;;;2.28;2.17;;;;;;;37.77;42.72;95508.59;5094557;28;20193;-54
2023/07/17 09:39:53;;;;;;;1.35;1.13;;;;;;;38.18;42.33;95508.53;5094219;28;20197;-57
2023/07/17 09:42:25;;;;;;;0.98;0.98;;;;;;;38.42;42.04;95501.47;5094604;28;20216;-57
2023/07/17 09:44:54;;;;;;;0.70;0.70;;;;;;;39.46;40.36;95494.72;5094084;28;20193;-57
2023/07/17 09:47:23;;;;;;;0.68;0.68;;;;;;;39.42;37.91;95493.31;5094978;28;20270;-57
2023/07/17 09:49:52;;;;;;;0.50;0.50;;;;;;;39.90;36.83;95492.69;5094433;28;20194;-57
2023/07/17 09:52:21;;;;;;;0.57;0.57;;;;;;;40.18;35.43;95486.03;5093600;28;20798;-58
2023/07/17 09:54:50;;;;;;;0.63;0.57;;;;;;;39.66;36.44;95489.66;5094436;28;20220;-58
2023/07/17 09:57:27;;;;;;;0.90;0.90;;;;;;;40.10;36.59;95479.25;5093705;28;20193;-57
2023/07/17 09:59:57;;;;;;;3.20;1.50;;;;;;;39.59;37.80;95478.00;5093657;28;20255;-58
2023/07/17 10:02:30;;;;;;;0.70;0.70;;;;;;;39.42;39.66;95474.66;5093985;28;20255;-58
2023/07/17 10:05:01;;;;;;;0.45;0.30;;;;;;;40.08;36.84;95428.19;5094134;28;20558;-53
2023/07/17 10:07:30;;;;;;;0.45;0.45;;;;;;;40.16;35.63;95449.63;5093197;28;20596;-53
2023/07/17 10:10:00;;;;;;;0.40;0.40;;;;;;;40.17;36.58;95464.28;5093949;28;20193;-54
2023/07/17 10:12:30;;;;;;;1.00;0.93;;;;;;;39.85;34.36;95463.50;5093502;28;20225;-54
2023/07/17 10:15:00;;;;;;;2.30;1.35;;;;;;;40.36;33.46;95443.66;5093485;28;20542;-52
2023/07/17 10:17:33;;;;;;;1.17;0.65;;;;;;;40.95;31.45;95445.94;5093372;28;20258;-58
2023/07/17 10:20:04;;;;;;;0.35;0.30;;;;;;;40.74;31.45;95441.28;5093455;28;20678;-66
2023/07/17 10:22:34;;;;;;;0.57;0.57;;;;;;;41.00;30.49;95445.34;5094206;28;20189;-66
2023/07/17 10:25:27;;;;;;;0.70;0.70;;;;;;;41.61;29.56;95424.69;5092785;28;20193;-67
2023/07/17 10:28:01;;;;;;;0.40;0.40;;;;;;;41.60;28.35;95425.94;5093584;28;20216;-58
2023/07/17 10:30:31;;;;;;;0.40;0.40;;;;;;;41.76;30.85;95424.84;5068628;28;20580;-56
2023/07/17 10:33:12;;;;;;;0.60;0.60;;;;;;;41.67;29.99;95424.84;5093291;28;20193;-57
2023/07/17 10:35:48;;;;;;;0.70;0.60;;;;;;;42.32;30.21;95412.97;5093727;28;20285;-59
2023/07/17 10:38:17;;;;;;;0.40;0.40;;;;;;;42.76;28.18;95415.97;5093429;28;20257;-60
2023/07/17 10:40:46;;;;;;;0.40;0.40;;;;;;;42.39;28.90;95363.22;5093605;28;20201;-57
2023/07/17 10:43:18;;;;;;;0.30;0.30;;;;;;;42.89;28.40;95408.09;5092824;28;20204;-57
2023/07/17 10:45:48;;;;;;;0.52;0.47;;;;;;;42.56;30.64;95408.19;5093555;28;20198;-57
2023/07/17 10:48:18;;;;;;;1.10;0.43;;;;;;;41.82;29.51;95408.25;5067886;28;20209;-57
2023/07/17 10:50:51;;;;;;;1.10;1.00;;;;;;;41.86;28.73;95397.72;5079517;28;20201;-57
2023/07/17 10:53:21;;;;;;;0.50;0.50;;;;;;;42.56;29.71;95396.25;5093214;28;20233;-56
2023/07/17 10:55:49;;;;;;;0.73;0.73;;;;;;;41.35;27.76;95358.75;5093134;28;20550;-56
2023/07/17 10:58:20;;;;;;;3.90;0.80;;;;;;;40.73;28.45;95397.28;5092718;28;20201;-56
2023/07/17 11:00:49;;;;;;;0.45;0.45;;;;;;;41.67;30.78;95378.28;5092426;28;20230;-56
2023/07/17 11:03:20;;;;;;;0.70;0.70;;;;;;;41.99;29.21;95399.06;5092584;28;20239;-56
2023/07/17 11:05:48;;;;;;;1.70;0.73;;;;;;;41.73;28.07;95389.56;5092321;28;20665;-56
2023/07/17 11:08:17;;;;;;;0.50;0.50;;;;;;;41.29;28.91;95389.25;5093169;28;20197;-56
2023/07/17 11:10:46;;;;;;;0.77;0.77;;;;;;;41.44;28.05;95392.13;5092689;28;20190;-56
2023/07/17 11:13:14;;;;;;;0.80;0.80;;;;;;;41.84;27.34;95384.28;5092543;28;20580;-56
2023/07/17 11:15:44;;;;;;;0.40;0.40;;;;;;;41.73;27.14;95384.78;5092148;28;20280;-57
2023/07/17 11:18:13;;;;;;;0.95;0.95;;;;;;;41.20;27.04;95380.88;5092262;28;20197;-56
2023/07/17 11:20:42;;;;;;;0.82;0.82;;;;;;;41.96;27.29;95379.72;5092391;28;20244;-56
2023/07/17 11:23:13;;;;;;;0.47;0.47;;;;;;;42.32;26.70;95371.97;5092497;28;20204;-56
2023/07/17 11:25:42;;;;;;;0.98;0.90;;;;;;;41.58;27.81;95377.53;5092675;28;20273;-57
2023/07/17 11:28:11;;;;;;;0.50;0.47;;;;;;;41.02;28.53;95367.78;5092116;28;20263;-57
2023/07/17 11:30:39;;;;;;;0.57;0.50;;;;;;;40.72;28.37;95368.69;5092133;28;20189;-57
2023/07/17 11:33:10;;;;;;;0.73;0.73;;;;;;;41.57;29.27;95364.88;5091662;28;20205;-57
2023/07/17 11:35:43;;;;;;;0.70;0.70;;;;;;;41.96;27.47;95365.78;5092421;28;20259;-56
2023/07/17 11:38:14;;;;;;;8.55;0.98;;;;;;;41.41;30.10;95356.91;5091828;28;20251;-56
2023/07/17 11:40:53;;;;;;;0.50;0.50;;;;;;;41.93;29.45;95358.38;5092529;28;20247;-56